createdAt,value
2019-01-19T00:00:48.351Z,0.00
2019-01-19T00:01:48.337Z,0.00
2019-01-19T00:02:48.329Z,0.00
2019-01-19T00:03:48.318Z,0.00
2019-01-19T00:04:48.315Z,0.00
2019-01-19T00:05:48.302Z,0.00
2019-01-19T00:06:49.043Z,0.00
2019-01-19T00:07:48.275Z,0.00
2019-01-19T00:08:48.266Z,0.00
2019-01-19T00:09:48.277Z,0.00
2019-01-19T00:10:48.243Z,0.00
2019-01-19T00:11:48.235Z,0.00
2019-01-19T00:12:48.223Z,0.00
2019-01-19T00:13:48.210Z,0.00
2019-01-19T00:14:48.242Z,0.00
2019-01-19T00:15:48.192Z,0.00
2019-01-19T00:16:48.225Z,0.00
2019-01-19T00:17:48.171Z,0.00
2019-01-19T00:18:48.157Z,0.00
2019-01-19T00:19:48.151Z,0.00
2019-01-19T00:20:48.149Z,0.00
2019-01-19T00:21:48.130Z,0.00
2019-01-19T00:22:48.119Z,0.00
2019-01-19T00:23:48.106Z,0.00
2019-01-19T00:24:48.153Z,0.00
2019-01-19T00:25:48.097Z,0.00
2019-01-19T00:26:48.084Z,0.00
2019-01-19T00:27:48.072Z,0.00
2019-01-19T00:28:48.056Z,0.00
2019-01-19T00:29:48.050Z,0.00
2019-01-19T00:30:48.053Z,0.00
2019-01-19T00:31:48.030Z,0.00
2019-01-19T00:32:48.027Z,0.00
2019-01-19T00:33:48.015Z,0.00
2019-01-19T00:34:48.012Z,0.00
2019-01-19T00:35:47.993Z,0.00
2019-01-19T00:36:47.972Z,0.00
2019-01-19T00:37:47.960Z,0.00
2019-01-19T00:38:47.953Z,0.00
2019-01-19T00:39:47.944Z,0.00
2019-01-19T00:40:47.940Z,0.00
2019-01-19T00:41:47.920Z,0.00
2019-01-19T00:42:47.910Z,0.00
2019-01-19T00:43:47.898Z,0.00
2019-01-19T00:44:47.891Z,0.00
2019-01-19T00:45:47.889Z,0.00
2019-01-19T00:46:47.865Z,0.00
2019-01-19T00:47:47.858Z,0.00
2019-01-19T00:48:47.847Z,0.00
2019-01-19T00:49:47.838Z,0.00
2019-01-19T00:50:47.854Z,0.00
2019-01-19T00:51:47.815Z,0.00
2019-01-19T00:52:47.806Z,0.00
2019-01-19T00:53:47.813Z,0.00
2019-01-19T00:54:47.783Z,0.00
2019-01-19T00:55:47.787Z,0.00
2019-01-19T00:56:47.782Z,0.00
2019-01-19T00:57:47.759Z,0.00
2019-01-19T00:58:47.753Z,0.00
2019-01-19T00:59:47.735Z,0.00
2019-01-19T01:00:47.725Z,0.00
2019-01-19T01:01:47.747Z,0.00
2019-01-19T01:02:47.705Z,0.00
2019-01-19T01:03:47.700Z,0.00
2019-01-19T01:04:47.683Z,0.00
2019-01-19T01:05:47.671Z,0.00
2019-01-19T01:06:47.680Z,0.00
2019-01-19T01:07:47.650Z,0.00
2019-01-19T01:08:47.639Z,0.00
2019-01-19T01:09:47.628Z,0.00
2019-01-19T01:10:47.620Z,0.00
2019-01-19T01:11:47.624Z,0.00
2019-01-19T01:12:47.604Z,0.00
2019-01-19T01:13:47.608Z,0.00
2019-01-19T01:14:47.579Z,0.00
2019-01-19T01:15:47.567Z,0.00
2019-01-19T01:16:47.574Z,0.00
2019-01-19T01:17:47.544Z,0.00
2019-01-19T01:18:47.538Z,0.00
2019-01-19T01:19:47.530Z,0.00
2019-01-19T01:20:47.519Z,0.00
2019-01-19T01:21:47.513Z,0.00
2019-01-19T01:22:47.509Z,0.00
2019-01-19T01:23:47.490Z,0.00
2019-01-19T01:24:47.473Z,0.00
2019-01-19T01:25:47.459Z,0.00
2019-01-19T01:26:47.481Z,0.00
2019-01-19T01:27:47.438Z,0.00
2019-01-19T01:28:47.432Z,0.00
2019-01-19T01:29:47.417Z,0.00
2019-01-19T01:30:47.409Z,0.00
2019-01-19T01:31:47.397Z,0.00
2019-01-19T01:32:47.396Z,0.00
2019-01-19T01:33:47.376Z,0.00
2019-01-19T01:34:47.365Z,0.00
2019-01-19T01:35:47.356Z,0.00
2019-01-19T01:36:47.352Z,0.00
2019-01-19T01:37:47.357Z,0.00
2019-01-19T01:38:47.323Z,0.00
2019-01-19T01:39:47.319Z,0.00
2019-01-19T01:40:47.302Z,0.00
2019-01-19T01:41:47.307Z,0.00
2019-01-19T01:42:47.294Z,0.00
2019-01-19T01:43:47.281Z,0.00
2019-01-19T01:44:47.270Z,0.00
2019-01-19T01:45:47.250Z,0.00
2019-01-19T01:46:47.237Z,0.00
2019-01-19T01:47:47.242Z,0.00
2019-01-19T01:48:47.219Z,0.00
2019-01-19T01:49:47.213Z,0.00
2019-01-19T01:50:47.198Z,0.00
2019-01-19T01:51:47.185Z,0.00
2019-01-19T01:52:47.190Z,0.00
2019-01-19T01:53:47.172Z,0.00
2019-01-19T01:54:47.154Z,0.00
2019-01-19T01:55:47.146Z,0.00
2019-01-19T01:56:47.136Z,0.00
2019-01-19T01:57:47.135Z,0.00
2019-01-19T01:58:47.113Z,0.00
2019-01-19T01:59:47.110Z,0.00
2019-01-19T02:00:47.093Z,0.00
2019-01-19T02:01:47.124Z,0.00
2019-01-19T02:02:47.105Z,0.00
2019-01-19T02:03:47.062Z,0.00
2019-01-19T02:04:47.054Z,0.00
2019-01-19T02:05:47.043Z,0.00
2019-01-19T02:06:47.058Z,0.00
2019-01-19T02:07:47.037Z,0.00
2019-01-19T02:08:47.013Z,0.00
2019-01-19T02:09:48.651Z,0.00
2019-01-19T02:10:46.990Z,0.00
2019-01-19T02:11:46.977Z,0.00
2019-01-19T02:12:47.018Z,0.00
2019-01-19T02:13:46.957Z,0.00
2019-01-19T02:14:46.946Z,0.00
2019-01-19T02:15:46.934Z,0.00
2019-01-19T02:16:46.930Z,0.00
2019-01-19T02:17:46.925Z,0.00
2019-01-19T02:18:46.925Z,0.00
2019-01-19T02:19:46.895Z,0.00
2019-01-19T02:20:46.886Z,0.00
2019-01-19T02:21:46.874Z,0.00
2019-01-19T02:22:46.866Z,0.00
2019-01-19T02:23:46.866Z,0.00
2019-01-19T02:24:46.842Z,0.00
2019-01-19T02:25:46.833Z,0.00
2019-01-19T02:26:46.826Z,0.00
2019-01-19T02:27:46.815Z,0.00
2019-01-19T02:28:46.815Z,0.00
2019-01-19T02:29:46.787Z,0.00
2019-01-19T02:30:46.780Z,0.00
2019-01-19T02:31:46.771Z,0.00
2019-01-19T02:32:46.758Z,0.00
2019-01-19T02:33:46.761Z,0.00
2019-01-19T02:34:46.741Z,0.00
2019-01-19T02:35:48.651Z,0.00
2019-01-19T02:36:46.726Z,0.00
2019-01-19T02:37:46.708Z,0.00
2019-01-19T02:38:47.068Z,0.00
2019-01-19T02:39:46.686Z,0.00
2019-01-19T02:40:46.680Z,0.00
2019-01-19T02:41:46.665Z,0.00
2019-01-19T02:42:46.653Z,0.00
2019-01-19T02:43:46.657Z,0.00
2019-01-19T02:44:46.633Z,0.00
2019-01-19T02:45:46.625Z,0.00
2019-01-19T02:46:46.613Z,0.00
2019-01-19T02:47:46.602Z,0.00
2019-01-19T02:48:46.604Z,0.00
2019-01-19T02:49:47.585Z,0.00
2019-01-19T02:50:46.573Z,0.00
2019-01-19T02:51:46.564Z,0.00
2019-01-19T02:52:46.547Z,0.00
2019-01-19T02:53:46.745Z,0.00
2019-01-19T02:54:46.533Z,0.00
2019-01-19T02:55:46.518Z,0.00
2019-01-19T02:56:46.512Z,0.00
2019-01-19T02:57:46.497Z,0.00
2019-01-19T02:58:46.487Z,0.00
2019-01-19T02:59:46.488Z,0.00
2019-01-19T03:00:46.470Z,0.00
2019-01-19T03:01:46.455Z,0.00
2019-01-19T03:02:46.444Z,0.00
2019-01-19T03:03:46.436Z,0.00
2019-01-19T03:04:46.444Z,0.00
2019-01-19T03:05:46.440Z,0.00
2019-01-19T03:06:46.402Z,0.00
2019-01-19T03:07:46.415Z,0.00
2019-01-19T03:08:46.383Z,0.00
2019-01-19T03:09:46.382Z,0.00
2019-01-19T03:10:46.362Z,0.00
2019-01-19T03:11:46.353Z,0.00
2019-01-19T03:12:46.343Z,0.00
2019-01-19T03:13:46.328Z,0.00
2019-01-19T03:14:46.343Z,0.00
2019-01-19T03:15:46.308Z,0.00
2019-01-19T03:16:46.299Z,0.00
2019-01-19T03:17:46.291Z,0.00
2019-01-19T03:18:46.283Z,0.00
2019-01-19T03:19:46.281Z,0.00
2019-01-19T03:20:46.256Z,0.00
2019-01-19T03:21:46.262Z,0.00
2019-01-19T03:22:46.237Z,0.00
2019-01-19T03:23:46.227Z,0.00
2019-01-19T03:24:46.228Z,0.00
2019-01-19T03:25:46.247Z,0.00
2019-01-19T03:26:46.196Z,0.00
2019-01-19T03:27:46.182Z,0.00
2019-01-19T03:28:46.171Z,0.00
2019-01-19T03:29:46.175Z,0.00
2019-01-19T03:30:46.153Z,0.00
2019-01-19T03:31:46.169Z,0.00
2019-01-19T03:32:46.132Z,0.00
2019-01-19T03:33:46.122Z,0.00
2019-01-19T03:34:46.123Z,0.00
2019-01-19T03:35:46.100Z,0.00
2019-01-19T03:36:46.093Z,0.00
2019-01-19T03:37:46.082Z,0.00
2019-01-19T03:38:46.073Z,0.00
2019-01-19T03:39:46.075Z,0.00
2019-01-19T03:40:46.050Z,0.00
2019-01-19T03:41:46.040Z,0.00
2019-01-19T03:42:46.027Z,0.00
2019-01-19T03:43:46.020Z,0.00
2019-01-19T03:44:46.005Z,0.00
2019-01-19T03:45:46.015Z,0.00
2019-01-19T03:46:45.986Z,0.00
2019-01-19T03:47:45.987Z,0.00
2019-01-19T03:48:45.972Z,0.00
2019-01-19T03:49:45.955Z,0.00
2019-01-19T03:50:45.957Z,0.00
2019-01-19T03:51:45.942Z,0.00
2019-01-19T03:52:45.925Z,0.00
2019-01-19T03:53:45.924Z,0.00
2019-01-19T03:54:45.924Z,0.00
2019-01-19T03:55:45.902Z,0.00
2019-01-19T03:56:45.879Z,0.00
2019-01-19T03:57:45.870Z,0.00
2019-01-19T03:58:45.863Z,0.00
2019-01-19T03:59:45.851Z,0.00
2019-01-19T04:00:45.849Z,0.00
2019-01-19T04:01:45.828Z,0.00
2019-01-19T04:02:45.817Z,0.00
2019-01-19T04:03:45.806Z,0.00
2019-01-19T04:04:45.813Z,0.00
2019-01-19T04:05:45.805Z,0.00
2019-01-19T04:06:45.779Z,0.00
2019-01-19T04:07:45.767Z,0.00
2019-01-19T04:08:45.756Z,0.00
2019-01-19T04:09:45.745Z,0.00
2019-01-19T04:10:45.761Z,0.00
2019-01-19T04:11:45.738Z,0.00
2019-01-19T04:12:45.713Z,0.00
2019-01-19T04:13:45.708Z,0.00
2019-01-19T04:14:45.691Z,0.00
2019-01-19T04:15:45.690Z,0.00
2019-01-19T04:16:45.700Z,0.00
2019-01-19T04:17:45.668Z,0.00
2019-01-19T04:18:45.648Z,0.00
2019-01-19T04:19:45.659Z,0.00
2019-01-19T04:20:45.630Z,0.00
2019-01-19T04:21:45.636Z,0.00
2019-01-19T04:22:45.615Z,0.00
2019-01-19T04:23:45.599Z,0.00
2019-01-19T04:24:45.587Z,0.00
2019-01-19T04:25:45.578Z,0.00
2019-01-19T04:26:45.606Z,0.00
2019-01-19T04:27:45.553Z,0.00
2019-01-19T04:28:45.559Z,0.00
2019-01-19T04:29:45.537Z,0.00
2019-01-19T04:30:45.555Z,0.00
2019-01-19T04:31:45.532Z,0.00
2019-01-19T04:32:45.507Z,0.00
2019-01-19T04:33:45.502Z,0.00
2019-01-19T04:34:45.486Z,0.00
2019-01-19T04:35:45.475Z,0.00
2019-01-19T04:36:45.474Z,0.00
2019-01-19T04:37:45.454Z,0.00
2019-01-19T04:38:45.444Z,0.00
2019-01-19T04:39:45.433Z,0.00
2019-01-19T04:40:45.418Z,0.00
2019-01-19T04:41:45.438Z,0.00
2019-01-19T04:42:45.400Z,0.00
2019-01-19T04:43:45.388Z,0.00
2019-01-19T04:44:45.389Z,0.00
2019-01-19T04:45:45.384Z,0.00
2019-01-19T04:46:45.358Z,0.00
2019-01-19T04:47:45.366Z,0.00
2019-01-19T04:48:45.338Z,0.00
2019-01-19T04:49:45.327Z,0.00
2019-01-19T04:50:45.330Z,0.00
2019-01-19T04:51:45.313Z,0.00
2019-01-19T04:52:45.313Z,0.00
2019-01-19T04:53:45.294Z,0.00
2019-01-19T04:54:45.276Z,0.00
2019-01-19T04:55:45.267Z,0.00
2019-01-19T04:56:45.254Z,0.00
2019-01-19T04:57:45.256Z,0.00
2019-01-19T04:58:45.231Z,0.00
2019-01-19T04:59:45.252Z,0.00
2019-01-19T05:00:45.212Z,0.00
2019-01-19T05:01:45.200Z,0.00
2019-01-19T05:02:45.205Z,0.00
2019-01-19T05:03:45.182Z,0.00
2019-01-19T05:04:45.171Z,0.00
2019-01-19T05:05:45.158Z,0.00
2019-01-19T05:06:45.147Z,0.00
2019-01-19T05:07:45.148Z,0.00
2019-01-19T05:08:45.128Z,0.00
2019-01-19T05:09:45.126Z,0.00
2019-01-19T05:10:45.108Z,0.00
2019-01-19T05:11:45.096Z,0.00
2019-01-19T05:12:45.097Z,0.00
2019-01-19T05:13:45.076Z,0.00
2019-01-19T05:14:45.068Z,0.00
2019-01-19T05:15:45.061Z,0.00
2019-01-19T05:16:45.057Z,0.00
2019-01-19T05:17:45.048Z,0.00
2019-01-19T05:18:45.026Z,0.00
2019-01-19T05:19:45.014Z,0.00
2019-01-19T05:20:45.003Z,0.00
2019-01-19T05:21:44.995Z,0.00
2019-01-19T05:22:45.002Z,0.00
2019-01-19T05:23:44.978Z,0.00
2019-01-19T05:24:44.961Z,0.00
2019-01-19T05:25:44.947Z,0.00
2019-01-19T05:26:44.943Z,0.00
2019-01-19T05:27:44.944Z,0.00
2019-01-19T05:28:44.920Z,0.00
2019-01-19T05:29:44.913Z,0.00
2019-01-19T05:30:44.898Z,0.00
2019-01-19T05:31:44.890Z,0.00
2019-01-19T05:32:44.883Z,0.00
2019-01-19T05:33:44.895Z,0.00
2019-01-19T05:34:44.854Z,0.00
2019-01-19T05:35:44.848Z,0.00
2019-01-19T05:36:44.834Z,0.00
2019-01-19T05:37:44.848Z,0.00
2019-01-19T05:38:44.834Z,0.00
2019-01-19T05:39:44.803Z,0.00
2019-01-19T05:40:44.789Z,0.00
2019-01-19T05:41:44.782Z,0.00
2019-01-19T05:42:44.774Z,0.00
2019-01-19T05:43:44.773Z,0.00
2019-01-19T05:44:44.936Z,0.00
2019-01-19T05:45:44.744Z,0.00
2019-01-19T05:46:44.728Z,0.00
2019-01-19T05:47:44.718Z,0.00
2019-01-19T05:48:44.722Z,0.00
2019-01-19T05:49:44.696Z,0.00
2019-01-19T05:50:44.688Z,0.00
2019-01-19T05:51:44.676Z,0.00
2019-01-19T05:52:44.666Z,0.00
2019-01-19T05:53:44.664Z,0.00
2019-01-19T05:54:44.642Z,0.00
2019-01-19T05:55:44.632Z,0.00
2019-01-19T05:56:44.631Z,0.00
2019-01-19T05:57:44.617Z,0.00
2019-01-19T05:58:44.617Z,0.00
2019-01-19T05:59:44.588Z,0.00
2019-01-19T06:00:44.577Z,0.00
2019-01-19T06:01:44.573Z,0.00
2019-01-19T06:02:44.564Z,0.00
2019-01-19T06:03:44.558Z,0.00
2019-01-19T06:04:44.537Z,0.00
2019-01-19T06:05:44.528Z,0.00
2019-01-19T06:06:46.989Z,0.00
2019-01-19T06:07:44.507Z,0.00
2019-01-19T06:08:44.513Z,0.00
2019-01-19T06:09:44.489Z,0.00
2019-01-19T06:10:44.478Z,0.00
2019-01-19T06:11:44.462Z,0.00
2019-01-19T06:12:44.450Z,0.00
2019-01-19T06:13:44.454Z,0.00
2019-01-19T06:14:44.435Z,0.00
2019-01-19T06:15:44.422Z,0.00
2019-01-19T06:16:44.423Z,0.00
2019-01-19T06:17:44.403Z,0.00
2019-01-19T06:18:44.403Z,0.00
2019-01-19T06:19:44.383Z,0.00
2019-01-19T06:20:44.370Z,0.00
2019-01-19T06:21:44.392Z,0.00
2019-01-19T06:22:44.371Z,0.00
2019-01-19T06:23:44.352Z,0.00
2019-01-19T06:24:44.341Z,0.00
2019-01-19T06:25:44.336Z,0.00
2019-01-19T06:26:44.334Z,0.00
2019-01-19T06:27:44.303Z,0.00
2019-01-19T06:28:44.303Z,0.00
2019-01-19T06:29:44.279Z,0.00
2019-01-19T06:30:44.273Z,0.00
2019-01-19T06:31:44.266Z,0.00
2019-01-19T06:32:44.255Z,0.00
2019-01-19T06:33:44.250Z,0.00
2019-01-19T06:34:44.222Z,0.00
2019-01-19T06:35:44.209Z,0.00
2019-01-19T06:36:44.203Z,0.00
2019-01-19T06:37:44.199Z,0.00
2019-01-19T06:38:44.194Z,0.00
2019-01-19T06:39:44.168Z,0.00
2019-01-19T06:40:44.157Z,0.00
2019-01-19T06:41:44.147Z,0.00
2019-01-19T06:42:44.138Z,0.00
2019-01-19T06:43:44.138Z,0.00
2019-01-19T06:44:44.120Z,0.00
2019-01-19T06:45:44.103Z,0.00
2019-01-19T06:46:44.097Z,0.00
2019-01-19T06:47:44.085Z,0.00
2019-01-19T06:48:44.114Z,0.00
2019-01-19T06:49:44.068Z,0.00
2019-01-19T06:50:44.054Z,0.00
2019-01-19T06:51:44.041Z,0.00
2019-01-19T06:52:44.030Z,0.00
2019-01-19T06:53:44.025Z,0.00
2019-01-19T06:54:44.021Z,0.00
2019-01-19T06:55:44.002Z,0.00
2019-01-19T06:56:43.988Z,5.62
2019-01-19T06:57:43.977Z,5.62
2019-01-19T06:58:43.969Z,5.62
2019-01-19T06:59:43.967Z,5.62
2019-01-19T07:00:43.945Z,5.62
2019-01-19T07:01:43.958Z,5.62
2019-01-19T07:02:43.929Z,5.62
2019-01-19T07:03:43.914Z,5.62
2019-01-19T07:04:43.927Z,5.62
2019-01-19T07:05:43.893Z,11.25
2019-01-19T07:06:43.885Z,11.25
2019-01-19T07:07:43.872Z,11.25
2019-01-19T07:08:43.863Z,11.25
2019-01-19T07:09:43.860Z,11.25
2019-01-19T07:10:43.845Z,11.25
2019-01-19T07:11:43.831Z,16.88
2019-01-19T07:12:43.822Z,16.88
2019-01-19T07:13:43.821Z,16.88
2019-01-19T07:14:43.810Z,16.88
2019-01-19T07:15:43.788Z,16.88
2019-01-19T07:16:43.787Z,22.50
2019-01-19T07:17:43.767Z,22.50
2019-01-19T07:18:43.755Z,22.50
2019-01-19T07:19:43.758Z,22.50
2019-01-19T07:20:43.739Z,28.12
2019-01-19T07:21:43.724Z,28.12
2019-01-19T07:22:43.718Z,28.12
2019-01-19T07:23:43.707Z,28.12
2019-01-19T07:24:43.707Z,33.75
2019-01-19T07:25:43.689Z,33.75
2019-01-19T07:26:43.671Z,33.75
2019-01-19T07:27:43.658Z,39.38
2019-01-19T07:28:43.650Z,39.38
2019-01-19T07:29:43.653Z,39.38
2019-01-19T07:30:43.633Z,45.00
2019-01-19T07:31:43.616Z,45.00
2019-01-19T07:32:43.664Z,45.00
2019-01-19T07:33:43.604Z,50.62
2019-01-19T07:34:43.598Z,50.62
2019-01-19T07:35:43.579Z,50.62
2019-01-19T07:36:43.577Z,56.25
2019-01-19T07:37:43.578Z,61.88
2019-01-19T07:38:43.543Z,67.50
2019-01-19T07:39:43.544Z,67.50
2019-01-19T07:40:43.523Z,67.50
2019-01-19T07:41:43.514Z,67.50
2019-01-19T07:42:43.514Z,73.12
2019-01-19T07:43:43.493Z,78.75
2019-01-19T07:44:43.491Z,78.75
2019-01-19T07:45:43.473Z,78.75
2019-01-19T07:46:43.458Z,73.12
2019-01-19T07:47:43.453Z,73.12
2019-01-19T07:48:43.440Z,78.75
2019-01-19T07:49:43.445Z,78.75
2019-01-19T07:50:43.419Z,78.75
2019-01-19T07:51:43.406Z,78.75
2019-01-19T07:52:43.399Z,78.75
2019-01-19T07:53:43.385Z,78.75
2019-01-19T07:54:43.401Z,78.75
2019-01-19T07:55:43.370Z,78.75
2019-01-19T07:56:43.375Z,78.75
2019-01-19T07:57:43.347Z,78.75
2019-01-19T07:58:43.363Z,78.75
2019-01-19T07:59:43.335Z,78.75
2019-01-19T08:00:43.323Z,84.38
2019-01-19T08:01:43.303Z,84.38
2019-01-19T08:02:43.289Z,84.38
2019-01-19T08:03:43.285Z,84.38
2019-01-19T08:04:43.300Z,84.38
2019-01-19T08:05:43.265Z,84.38
2019-01-19T08:06:43.248Z,90.00
2019-01-19T08:07:43.235Z,90.00
2019-01-19T08:08:43.226Z,90.00
2019-01-19T08:09:43.285Z,90.00
2019-01-19T08:10:43.207Z,90.00
2019-01-19T08:11:43.197Z,95.62
2019-01-19T08:12:43.187Z,95.62
2019-01-19T08:13:43.174Z,101.25
2019-01-19T08:14:43.164Z,101.25
2019-01-19T08:15:43.241Z,106.88
2019-01-19T08:16:43.143Z,106.88
2019-01-19T08:17:43.149Z,106.88
2019-01-19T08:18:43.125Z,106.88
2019-01-19T08:19:43.112Z,112.50
2019-01-19T08:20:43.127Z,112.50
2019-01-19T08:21:43.091Z,118.12
2019-01-19T08:22:43.083Z,123.75
2019-01-19T08:23:43.068Z,129.38
2019-01-19T08:24:43.059Z,129.38
2019-01-19T08:25:43.060Z,135.00
2019-01-19T08:26:43.037Z,135.00
2019-01-19T08:27:43.032Z,140.62
2019-01-19T08:28:43.022Z,140.62
2019-01-19T08:29:43.004Z,146.25
2019-01-19T08:30:43.005Z,151.88
2019-01-19T08:31:43.035Z,151.88
2019-01-19T08:32:42.982Z,151.88
2019-01-19T08:33:42.966Z,157.50
2019-01-19T08:34:42.955Z,157.50
2019-01-19T08:35:42.966Z,157.50
2019-01-19T08:36:42.935Z,157.50
2019-01-19T08:37:42.939Z,157.50
2019-01-19T08:38:42.975Z,163.12
2019-01-19T08:39:42.907Z,196.88
2019-01-19T08:40:42.900Z,258.75
2019-01-19T08:41:42.885Z,247.50
2019-01-19T08:42:42.872Z,202.50
2019-01-19T08:43:42.858Z,196.88
2019-01-19T08:44:42.856Z,180.00
2019-01-19T08:45:42.868Z,174.38
2019-01-19T08:46:42.831Z,174.38
2019-01-19T08:47:42.818Z,174.38
2019-01-19T08:48:42.807Z,174.38
2019-01-19T08:49:42.797Z,180.00
2019-01-19T08:50:42.804Z,180.00
2019-01-19T08:51:42.792Z,180.00
2019-01-19T08:52:42.775Z,191.25
2019-01-19T08:53:42.760Z,219.38
2019-01-19T08:54:42.747Z,241.88
2019-01-19T08:55:42.742Z,241.88
2019-01-19T08:56:42.728Z,241.88
2019-01-19T08:57:42.717Z,264.38
2019-01-19T08:58:42.715Z,258.75
2019-01-19T08:59:42.689Z,241.88
2019-01-19T09:00:42.692Z,213.75
2019-01-19T09:01:42.676Z,258.75
2019-01-19T09:02:42.659Z,331.88
2019-01-19T09:03:42.649Z,382.50
2019-01-19T09:04:42.637Z,399.38
2019-01-19T09:05:42.637Z,376.88
2019-01-19T09:06:42.616Z,376.88
2019-01-19T09:07:42.608Z,393.75
2019-01-19T09:08:42.595Z,416.25
2019-01-19T09:09:42.591Z,399.38
2019-01-19T09:10:42.582Z,376.88
2019-01-19T09:11:42.561Z,360.00
2019-01-19T09:12:43.083Z,348.75
2019-01-19T09:13:42.544Z,331.88
2019-01-19T09:14:42.540Z,298.12
2019-01-19T09:15:42.534Z,292.50
2019-01-19T09:16:42.509Z,326.25
2019-01-19T09:17:42.498Z,331.88
2019-01-19T09:18:42.488Z,337.50
2019-01-19T09:19:42.483Z,331.88
2019-01-19T09:20:42.500Z,253.12
2019-01-19T09:21:42.459Z,202.50
2019-01-19T09:22:42.445Z,202.50
2019-01-19T09:23:42.442Z,236.25
2019-01-19T09:24:42.424Z,241.88
2019-01-19T09:25:42.414Z,236.25
2019-01-19T09:26:42.417Z,236.25
2019-01-19T09:27:42.393Z,230.62
2019-01-19T09:28:42.383Z,219.38
2019-01-19T09:29:42.371Z,213.75
2019-01-19T09:30:42.367Z,208.12
2019-01-19T09:31:42.363Z,208.12
2019-01-19T09:32:42.348Z,208.12
2019-01-19T09:33:42.387Z,202.50
2019-01-19T09:34:42.321Z,202.50
2019-01-19T09:35:42.307Z,202.50
2019-01-19T09:36:42.316Z,196.88
2019-01-19T09:37:42.289Z,191.25
2019-01-19T09:38:42.275Z,185.62
2019-01-19T09:39:42.267Z,185.62
2019-01-19T09:40:42.255Z,191.25
2019-01-19T09:41:42.259Z,191.25
2019-01-19T09:42:42.235Z,196.88
2019-01-19T09:43:42.223Z,196.88
2019-01-19T09:44:42.212Z,196.88
2019-01-19T09:45:42.218Z,196.88
2019-01-19T09:46:42.202Z,196.88
2019-01-19T09:47:42.180Z,191.25
2019-01-19T09:48:42.176Z,191.25
2019-01-19T09:49:42.160Z,185.62
2019-01-19T09:50:42.153Z,185.62
2019-01-19T09:51:42.161Z,191.25
2019-01-19T09:52:42.131Z,185.62
2019-01-19T09:53:42.118Z,185.62
2019-01-19T09:54:42.109Z,191.25
2019-01-19T09:55:42.102Z,185.62
2019-01-19T09:56:42.120Z,185.62
2019-01-19T09:57:42.083Z,180.00
2019-01-19T09:58:42.064Z,185.62
2019-01-19T09:59:42.056Z,180.00
2019-01-19T10:00:45.741Z,174.38
2019-01-19T10:01:42.045Z,180.00
2019-01-19T10:02:42.057Z,174.38
2019-01-19T10:03:42.060Z,174.38
2019-01-19T10:04:41.999Z,174.38
2019-01-19T10:05:42.005Z,174.38
2019-01-19T10:06:41.997Z,174.38
2019-01-19T10:07:48.223Z,180.00
2019-01-19T10:08:42.960Z,180.00
2019-01-19T10:09:41.949Z,185.62
2019-01-19T10:10:41.938Z,174.38
2019-01-19T10:11:41.942Z,174.38
2019-01-19T10:12:41.926Z,168.75
2019-01-19T10:13:41.914Z,168.75
2019-01-19T10:14:41.903Z,168.75
2019-01-19T10:15:41.923Z,168.75
2019-01-19T10:16:41.896Z,168.75
2019-01-19T10:17:41.865Z,168.75
2019-01-19T10:18:41.856Z,168.75
2019-01-19T10:19:41.850Z,168.75
2019-01-19T10:20:41.842Z,168.75
2019-01-19T10:21:41.838Z,168.75
2019-01-19T10:22:41.818Z,163.12
2019-01-19T10:23:41.803Z,163.12
2019-01-19T10:24:41.801Z,163.12
2019-01-19T10:25:41.804Z,163.12
2019-01-19T10:26:41.786Z,168.75
2019-01-19T10:27:41.765Z,163.12
2019-01-19T10:28:41.754Z,163.12
2019-01-19T10:29:41.741Z,163.12
2019-01-19T10:30:41.743Z,163.12
2019-01-19T10:31:41.739Z,163.12
2019-01-19T10:32:41.713Z,168.75
2019-01-19T10:33:41.700Z,163.12
2019-01-19T10:34:41.693Z,163.12
2019-01-19T10:35:41.680Z,163.12
2019-01-19T10:36:41.680Z,163.12
2019-01-19T10:37:41.656Z,163.12
2019-01-19T10:38:41.649Z,163.12
2019-01-19T10:39:41.633Z,163.12
2019-01-19T10:40:41.647Z,163.12
2019-01-19T10:41:41.645Z,163.12
2019-01-19T10:42:41.737Z,163.12
2019-01-19T10:43:41.595Z,163.12
2019-01-19T10:44:41.582Z,168.75
2019-01-19T10:45:41.571Z,163.12
2019-01-19T10:46:41.558Z,163.12
2019-01-19T10:47:41.566Z,163.12
2019-01-19T10:48:41.547Z,163.12
2019-01-19T10:49:41.534Z,163.12
2019-01-19T10:50:41.524Z,163.12
2019-01-19T10:51:41.508Z,163.12
2019-01-19T10:52:41.510Z,163.12
2019-01-19T10:53:41.489Z,168.75
2019-01-19T10:54:41.483Z,168.75
2019-01-19T10:55:41.471Z,168.75
2019-01-19T10:56:41.456Z,168.75
2019-01-19T10:57:41.455Z,163.12
2019-01-19T10:58:41.445Z,163.12
2019-01-19T10:59:41.427Z,163.12
2019-01-19T11:00:41.416Z,163.12
2019-01-19T11:01:41.402Z,163.12
2019-01-19T11:02:41.405Z,163.12
2019-01-19T11:03:41.392Z,157.50
2019-01-19T11:04:41.375Z,157.50
2019-01-19T11:05:41.365Z,157.50
2019-01-19T11:06:41.353Z,157.50
2019-01-19T11:07:41.353Z,157.50
2019-01-19T11:08:41.327Z,157.50
2019-01-19T11:09:41.319Z,157.50
2019-01-19T11:10:41.313Z,151.88
2019-01-19T11:11:41.307Z,151.88
2019-01-19T11:12:41.313Z,151.88
2019-01-19T11:13:41.278Z,151.88
2019-01-19T11:14:41.270Z,151.88
2019-01-19T11:15:41.256Z,151.88
2019-01-19T11:16:41.247Z,146.25
2019-01-19T11:17:41.254Z,151.88
2019-01-19T11:18:41.232Z,151.88
2019-01-19T11:19:41.215Z,146.25
2019-01-19T11:20:41.205Z,146.25
2019-01-19T11:21:41.191Z,151.88
2019-01-19T11:22:41.245Z,151.88
2019-01-19T11:23:41.188Z,151.88
2019-01-19T11:24:41.159Z,151.88
2019-01-19T11:25:41.155Z,157.50
2019-01-19T11:26:41.143Z,157.50
2019-01-19T11:27:41.146Z,151.88
2019-01-19T11:28:41.129Z,151.88
2019-01-19T11:29:41.107Z,151.88
2019-01-19T11:30:41.095Z,151.88
2019-01-19T11:31:41.084Z,151.88
2019-01-19T11:32:44.529Z,151.88
2019-01-19T11:33:41.064Z,151.88
2019-01-19T11:34:41.054Z,151.88
2019-01-19T11:35:41.045Z,151.88
2019-01-19T11:36:41.033Z,151.88
2019-01-19T11:37:41.034Z,146.25
2019-01-19T11:38:41.012Z,146.25
2019-01-19T11:39:41.038Z,146.25
2019-01-19T11:40:40.994Z,146.25
2019-01-19T11:41:40.985Z,146.25
2019-01-19T11:42:40.987Z,146.25
2019-01-19T11:43:40.959Z,151.88
2019-01-19T11:44:40.949Z,151.88
2019-01-19T11:45:40.939Z,151.88
2019-01-19T11:46:40.982Z,151.88
2019-01-19T11:47:40.933Z,151.88
2019-01-19T11:48:40.906Z,151.88
2019-01-19T11:49:40.892Z,146.25
2019-01-19T11:50:40.883Z,146.25
2019-01-19T11:51:40.879Z,146.25
2019-01-19T11:52:40.880Z,146.25
2019-01-19T11:53:40.854Z,151.88
2019-01-19T11:54:40.844Z,146.25
2019-01-19T11:55:40.840Z,146.25
2019-01-19T11:56:40.822Z,146.25
2019-01-19T11:57:40.810Z,146.25
2019-01-19T11:58:40.811Z,146.25
2019-01-19T11:59:40.791Z,146.25
2019-01-19T12:00:40.780Z,140.62
2019-01-19T12:01:40.783Z,140.62
2019-01-19T12:02:40.763Z,140.62
2019-01-19T12:03:40.759Z,140.62
2019-01-19T12:04:40.742Z,146.25
2019-01-19T12:05:40.756Z,146.25
2019-01-19T12:06:40.727Z,146.25
2019-01-19T12:07:40.706Z,146.25
2019-01-19T12:08:40.704Z,146.25
2019-01-19T12:09:41.254Z,146.25
2019-01-19T12:10:40.674Z,146.25
2019-01-19T12:11:40.668Z,140.62
2019-01-19T12:12:40.652Z,140.62
2019-01-19T12:13:40.661Z,140.62
2019-01-19T12:14:40.639Z,140.62
2019-01-19T12:15:40.620Z,140.62
2019-01-19T12:16:40.607Z,140.62
2019-01-19T12:17:40.611Z,140.62
2019-01-19T12:18:40.599Z,140.62
2019-01-19T12:19:40.578Z,140.62
2019-01-19T12:20:40.575Z,140.62
2019-01-19T12:21:40.559Z,140.62
2019-01-19T12:22:40.551Z,135.00
2019-01-19T12:23:40.558Z,135.00
2019-01-19T12:24:40.523Z,135.00
2019-01-19T12:25:40.515Z,135.00
2019-01-19T12:26:40.504Z,129.38
2019-01-19T12:27:40.497Z,129.38
2019-01-19T12:28:40.509Z,129.38
2019-01-19T12:29:40.489Z,129.38
2019-01-19T12:30:40.462Z,129.38
2019-01-19T12:31:40.458Z,129.38
2019-01-19T12:32:40.442Z,129.38
2019-01-19T12:33:40.450Z,129.38
2019-01-19T12:34:40.415Z,123.75
2019-01-19T12:35:40.404Z,123.75
2019-01-19T12:36:40.394Z,123.75
2019-01-19T12:37:40.382Z,123.75
2019-01-19T12:38:40.397Z,123.75
2019-01-19T12:39:40.366Z,118.12
2019-01-19T12:40:40.373Z,118.12
2019-01-19T12:41:40.351Z,118.12
2019-01-19T12:42:40.341Z,118.12
2019-01-19T12:43:40.333Z,118.12
2019-01-19T12:44:40.320Z,118.12
2019-01-19T12:45:40.304Z,118.12
2019-01-19T12:46:40.296Z,112.50
2019-01-19T12:47:40.298Z,112.50
2019-01-19T12:48:40.284Z,112.50
2019-01-19T12:49:40.269Z,112.50
2019-01-19T12:50:40.253Z,112.50
2019-01-19T12:51:40.243Z,112.50
2019-01-19T12:52:40.232Z,106.88
2019-01-19T12:53:40.229Z,106.88
2019-01-19T12:54:40.208Z,106.88
2019-01-19T12:55:40.196Z,112.50
2019-01-19T12:56:40.188Z,112.50
2019-01-19T12:57:40.173Z,106.88